Time;durP1;ratioP1;P1;durP2;ratioP2;P2;SDS_P1;SDS_P2;PMS_P1;PMS_P2;Temp;Humidity;BMP_temperature;BMP_pressure;BME280_temperature;BME280_humidity;BME280_pressure;Samples;Min_cycle;Max_cycle;Signal;HPM_P1;HPM_P2
2021/10/14 00:01:48;;;;;;;0.80;0.80;;;;;;;;;;5031819;28;20920;-74
2021/10/14 00:04:15;;;;;;;1.33;1.27;;;;;;;;;;5031651;28;20836;-73
2021/10/14 00:06:41;;;;;;;2.35;1.33;;;;;;;;;;5030761;28;20979;-74
2021/10/14 00:09:06;;;;;;;2.23;1.20;;;;;;;;;;5014091;28;20202;-74
2021/10/14 00:11:32;;;;;;;0.80;0.80;;;;;;;;;;5031754;28;20571;-74
2021/10/14 00:13:58;;;;;;;1.23;1.23;;;;;;;;;;5031717;28;20418;-74
2021/10/14 00:16:24;;;;;;;2.23;2.07;;;;;;;;;;5039080;28;20776;-74
2021/10/14 00:18:50;;;;;;;1.43;1.23;;;;;;;;;;5049301;28;20817;-74
2021/10/14 00:21:16;;;;;;;1.53;1.43;;;;;;;;;;5051547;28;20416;-74
2021/10/14 00:23:42;;;;;;;1.73;1.13;;;;;;;;;;5056392;28;20404;-74
2021/10/14 00:26:08;;;;;;;0.80;0.80;;;;;;;;;;5048057;28;20633;-74
2021/10/14 00:28:34;;;;;;;1.40;1.30;;;;;;;;;;5038266;28;20409;-74
2021/10/14 00:31:00;;;;;;;0.70;0.70;;;;;;;;;;5038000;28;20205;-74
2021/10/14 00:33:26;;;;;;;1.25;1.15;;;;;;;;;;5037874;28;20224;-73
2021/10/14 00:35:52;;;;;;;1.17;1.07;;;;;;;;;;5037409;28;20182;-74
2021/10/14 00:38:18;;;;;;;1.33;0.80;;;;;;;;;;5037883;28;20802;-74
2021/10/14 00:40:45;;;;;;;1.23;1.10;;;;;;;;;;5038254;28;20408;-74
2021/10/14 00:43:11;;;;;;;1.65;1.55;;;;;;;;;;5038172;28;20792;-74
2021/10/14 00:45:37;;;;;;;0.97;0.97;;;;;;;;;;5036194;28;20189;-74
2021/10/14 00:48:03;;;;;;;0.70;0.60;;;;;;;;;;5045226;28;20787;-74
2021/10/14 00:50:29;;;;;;;1.85;1.70;;;;;;;;;;5037934;28;20213;-74
2021/10/14 00:52:57;;;;;;;1.20;1.10;;;;;;;;;;5037938;28;20539;-74
2021/10/14 00:55:23;;;;;;;1.63;1.40;;;;;;;;;;5038417;28;20400;-74
2021/10/14 00:57:49;;;;;;;0.70;0.60;;;;;;;;;;5037355;28;20255;-74
2021/10/14 01:00:16;;;;;;;2.67;1.60;;;;;;;;;;5037969;28;20178;-74
2021/10/14 01:02:42;;;;;;;1.60;1.45;;;;;;;;;;5038004;28;20181;-74
2021/10/14 01:05:09;;;;;;;1.80;1.17;;;;;;;;;;5038028;28;20603;-74
2021/10/14 01:07:35;;;;;;;2.10;2.00;;;;;;;;;;5037176;28;20219;-74
2021/10/14 01:10:00;;;;;;;1.37;1.27;;;;;;;;;;5038226;28;20260;-74
2021/10/14 01:12:27;;;;;;;1.13;1.00;;;;;;;;;;5038068;28;20409;-74
2021/10/14 01:14:53;;;;;;;0.70;0.70;;;;;;;;;;5037468;28;20436;-74
2021/10/14 01:17:20;;;;;;;1.20;1.20;;;;;;;;;;5038562;28;20277;-74
2021/10/14 01:19:46;;;;;;;0.70;0.70;;;;;;;;;;5037949;28;20180;-73
2021/10/14 01:22:11;;;;;;;0.70;0.60;;;;;;;;;;5037711;28;20257;-74
2021/10/14 01:24:37;;;;;;;0.70;0.60;;;;;;;;;;5037767;28;20630;-73
2021/10/14 01:27:04;;;;;;;1.00;1.00;;;;;;;;;;5036872;28;20448;-73
2021/10/14 01:29:31;;;;;;;1.77;1.48;;;;;;;;;;5037614;28;20412;-73
2021/10/14 01:31:57;;;;;;;0.88;0.88;;;;;;;;;;5037518;28;20221;-73
2021/10/14 01:34:23;;;;;;;1.25;1.15;;;;;;;;;;5035566;28;20613;-73
2021/10/14 01:36:49;;;;;;;1.07;0.97;;;;;;;;;;5033583;28;20190;-73
2021/10/14 01:39:15;;;;;;;0.70;0.70;;;;;;;;;;5034521;28;20512;-73
2021/10/14 01:41:44;;;;;;;2.20;1.27;;;;;;;;;;5034552;28;20413;-74
2021/10/14 01:44:11;;;;;;;1.70;1.60;;;;;;;;;;5034213;28;21043;-73
2021/10/14 01:46:37;;;;;;;2.40;2.30;;;;;;;;;;5043872;28;20231;-73
2021/10/14 01:49:03;;;;;;;0.70;0.70;;;;;;;;;;5034616;28;20264;-73
2021/10/14 01:51:29;;;;;;;1.73;1.33;;;;;;;;;;5034215;28;20949;-73
2021/10/14 01:53:54;;;;;;;3.80;3.27;;;;;;;;;;5033903;28;20401;-73
2021/10/14 01:56:20;;;;;;;1.07;0.97;;;;;;;;;;5033247;28;20888;-73
2021/10/14 01:58:46;;;;;;;0.70;0.70;;;;;;;;;;5034119;28;20410;-73
2021/10/14 02:01:12;;;;;;;1.40;1.13;;;;;;;;;;5033933;28;20417;-73
2021/10/14 02:03:38;;;;;;;1.75;1.65;;;;;;;;;;5034125;28;20417;-73
2021/10/14 02:06:04;;;;;;;1.20;1.10;;;;;;;;;;5033471;28;20186;-74
2021/10/14 02:08:30;;;;;;;1.37;1.33;;;;;;;;;;5033923;28;20413;-74
2021/10/14 02:10:56;;;;;;;2.23;1.87;;;;;;;;;;5033846;28;20506;-74
2021/10/14 02:13:22;;;;;;;0.90;0.90;;;;;;;;;;5033655;28;20432;-73
2021/10/14 02:15:48;;;;;;;1.33;1.15;;;;;;;;;;5039180;28;20418;-73
2021/10/14 02:18:14;;;;;;;1.17;0.97;;;;;;;;;;5046385;28;20193;-74
2021/10/14 02:20:40;;;;;;;1.10;1.00;;;;;;;;;;5053792;28;20461;-73
2021/10/14 02:23:06;;;;;;;0.80;0.80;;;;;;;;;;5053387;28;20418;-74
2021/10/14 02:25:32;;;;;;;1.33;1.23;;;;;;;;;;5053465;28;20408;-74
2021/10/14 02:27:58;;;;;;;2.88;1.20;;;;;;;;;;5052621;28;20434;-73
2021/10/14 02:30:24;;;;;;;0.70;0.60;;;;;;;;;;5053188;28;20686;-74
2021/10/14 02:32:50;;;;;;;0.70;0.70;;;;;;;;;;5053448;28;20903;-73
2021/10/14 02:35:16;;;;;;;1.00;1.00;;;;;;;;;;5053453;28;20404;-73
2021/10/14 02:37:42;;;;;;;1.23;1.13;;;;;;;;;;5052176;28;20859;-73
2021/10/14 02:40:08;;;;;;;0.80;0.80;;;;;;;;;;5053495;28;20436;-73
2021/10/14 02:42:34;;;;;;;1.17;1.08;;;;;;;;;;5053072;28;20471;-73
2021/10/14 02:45:00;;;;;;;2.80;0.90;;;;;;;;;;5043384;28;20265;-73
2021/10/14 02:47:26;;;;;;;0.70;0.60;;;;;;;;;;5039355;28;20436;-73
2021/10/14 02:49:52;;;;;;;1.07;0.97;;;;;;;;;;5033234;28;20813;-73
2021/10/14 02:52:18;;;;;;;1.40;1.30;;;;;;;;;;5032974;28;20491;-73
2021/10/14 02:54:44;;;;;;;0.70;0.70;;;;;;;;;;5033169;28;20452;-73
2021/10/14 02:57:10;;;;;;;2.50;1.17;;;;;;;;;;5032449;28;20433;-73
2021/10/14 02:59:36;;;;;;;0.80;0.70;;;;;;;;;;5033242;28;20499;-74
2021/10/14 03:02:01;;;;;;;0.90;0.90;;;;;;;;;;5033155;28;20763;-73
2021/10/14 03:04:27;;;;;;;1.50;1.40;;;;;;;;;;5032919;28;20459;-73
2021/10/14 03:06:53;;;;;;;1.00;0.80;;;;;;;;;;5032091;28;20913;-73
2021/10/14 03:09:19;;;;;;;1.63;1.33;;;;;;;;;;5032651;28;20911;-74
2021/10/14 03:11:45;;;;;;;3.03;1.67;;;;;;;;;;5032612;28;20456;-74
2021/10/14 03:14:11;;;;;;;0.80;0.80;;;;;;;;;;5032600;28;20411;-73
2021/10/14 03:16:37;;;;;;;0.70;0.60;;;;;;;;;;5042830;28;20460;-74
2021/10/14 03:19:03;;;;;;;0.90;0.80;;;;;;;;;;5033033;28;20428;-74
2021/10/14 03:21:29;;;;;;;18.63;1.67;;;;;;;;;;5032591;28;20470;-74
2021/10/14 03:23:55;;;;;;;0.70;0.60;;;;;;;;;;5032359;28;20505;-74
2021/10/14 03:26:21;;;;;;;1.33;0.90;;;;;;;;;;5031676;28;20409;-73
2021/10/14 03:28:47;;;;;;;0.83;0.83;;;;;;;;;;5014690;28;20415;-73
2021/10/14 03:31:13;;;;;;;2.40;1.30;;;;;;;;;;5032483;28;20464;-74
2021/10/14 03:33:38;;;;;;;1.17;1.07;;;;;;;;;;5032472;28;20409;-73
2021/10/14 03:36:05;;;;;;;0.80;0.80;;;;;;;;;;5031681;28;20437;-73
2021/10/14 03:38:31;;;;;;;0.80;0.80;;;;;;;;;;5032061;28;20847;-73
2021/10/14 03:40:57;;;;;;;0.90;0.90;;;;;;;;;;5032319;28;20281;-73
2021/10/14 03:43:22;;;;;;;1.80;1.00;;;;;;;;;;5032135;28;20265;-73
2021/10/14 03:45:48;;;;;;;1.17;1.17;;;;;;;;;;5031094;28;20420;-74
2021/10/14 03:48:15;;;;;;;1.27;1.20;;;;;;;;;;5043924;28;21359;-73
2021/10/14 03:50:41;;;;;;;1.70;1.60;;;;;;;;;;5051960;28;20468;-73
2021/10/14 03:53:09;;;;;;;1.10;1.00;;;;;;;;;;5051846;28;20184;-73
2021/10/14 03:55:34;;;;;;;2.25;1.27;;;;;;;;;;5051983;28;20186;-73
2021/10/14 03:58:00;;;;;;;0.97;0.90;;;;;;;;;;5050666;28;20247;-73
2021/10/14 04:00:26;;;;;;;0.70;0.60;;;;;;;;;;5052082;28;20810;-73
2021/10/14 04:02:52;;;;;;;1.65;1.55;;;;;;;;;;5052118;28;20422;-73
2021/10/14 04:05:18;;;;;;;0.70;0.63;;;;;;;;;;5052114;28;20248;-73
2021/10/14 04:07:44;;;;;;;1.10;1.00;;;;;;;;;;5050734;28;20452;-74
2021/10/14 04:10:11;;;;;;;2.60;1.10;;;;;;;;;;5051883;28;20177;-74
2021/10/14 04:12:37;;;;;;;1.55;1.05;;;;;;;;;;5051720;28;20409;-74
2021/10/14 04:15:04;;;;;;;2.37;2.10;;;;;;;;;;5042866;28;20604;-74
2021/10/14 04:17:30;;;;;;;1.55;1.45;;;;;;;;;;5040860;28;20448;-74
2021/10/14 04:19:56;;;;;;;1.17;1.17;;;;;;;;;;5051956;28;20170;-74
2021/10/14 04:22:22;;;;;;;0.70;0.60;;;;;;;;;;5051527;28;20735;-74
2021/10/14 04:24:48;;;;;;;0.85;0.77;;;;;;;;;;5051893;28;20408;-74
2021/10/14 04:27:15;;;;;;;0.90;0.90;;;;;;;;;;5050878;28;20217;-74
2021/10/14 04:29:41;;;;;;;1.63;1.52;;;;;;;;;;5051766;28;20260;-74
2021/10/14 04:32:07;;;;;;;0.70;0.60;;;;;;;;;;5051670;28;20347;-74
2021/10/14 04:34:33;;;;;;;1.35;0.93;;;;;;;;;;5051682;28;20891;-75
2021/10/14 04:36:59;;;;;;;0.70;0.60;;;;;;;;;;5050807;28;20291;-75
2021/10/14 04:39:25;;;;;;;2.23;2.07;;;;;;;;;;5051377;28;20211;-75
2021/10/14 04:41:51;;;;;;;1.43;1.33;;;;;;;;;;5051384;28;20414;-75
2021/10/14 04:44:17;;;;;;;0.70;0.70;;;;;;;;;;5048778;28;20432;-75
2021/10/14 04:46:43;;;;;;;0.93;0.90;;;;;;;;;;5044882;28;20440;-75
2021/10/14 04:49:09;;;;;;;1.53;1.17;;;;;;;;;;5029700;28;20429;-75
2021/10/14 04:51:35;;;;;;;1.37;1.27;;;;;;;;;;5031363;28;20464;-76
2021/10/14 04:54:01;;;;;;;1.20;0.90;;;;;;;;;;5031247;28;20417;-75
2021/10/14 04:56:27;;;;;;;1.67;0.70;;;;;;;;;;5030851;28;20479;-75
2021/10/14 04:58:53;;;;;;;0.80;0.77;;;;;;;;;;5031496;28;20409;-75
2021/10/14 05:01:19;;;;;;;0.70;0.70;;;;;;;;;;5031575;28;20416;-75
2021/10/14 05:03:45;;;;;;;1.83;1.73;;;;;;;;;;5031383;28;20461;-75
2021/10/14 05:06:10;;;;;;;2.60;1.87;;;;;;;;;;5028999;28;20425;-75
2021/10/14 05:08:36;;;;;;;1.10;1.00;;;;;;;;;;5030952;28;20460;-75
2021/10/14 05:11:04;;;;;;;0.80;0.80;;;;;;;;;;5034653;28;20468;-75
2021/10/14 05:13:30;;;;;;;1.80;1.70;;;;;;;;;;5035150;28;21018;-75
2021/10/14 05:15:56;;;;;;;1.20;0.80;;;;;;;;;;5042608;28;20264;-75
2021/10/14 05:18:22;;;;;;;0.90;0.90;;;;;;;;;;5049001;28;20431;-75
2021/10/14 05:20:48;;;;;;;1.13;1.00;;;;;;;;;;5054858;28;20407;-75
2021/10/14 05:23:14;;;;;;;3.33;3.10;;;;;;;;;;5054564;28;20546;-75
2021/10/14 05:25:40;;;;;;;2.30;1.93;;;;;;;;;;5045444;28;20442;-75
2021/10/14 05:28:06;;;;;;;1.20;1.10;;;;;;;;;;5034367;28;20964;-75
2021/10/14 05:30:32;;;;;;;0.70;0.70;;;;;;;;;;5034794;28;20276;-74
2021/10/14 05:32:58;;;;;;;1.20;1.00;;;;;;;;;;5034762;28;20405;-74
2021/10/14 05:35:24;;;;;;;1.40;1.30;;;;;;;;;;5034515;28;20404;-74
2021/10/14 05:37:50;;;;;;;1.20;1.10;;;;;;;;;;5033328;28;20425;-74
2021/10/14 05:40:16;;;;;;;0.70;0.60;;;;;;;;;;5034607;28;20440;-74
2021/10/14 05:42:42;;;;;;;0.93;0.93;;;;;;;;;;5034477;28;20416;-74
2021/10/14 05:45:09;;;;;;;0.80;0.80;;;;;;;;;;5038190;28;20496;-74
2021/10/14 05:47:35;;;;;;;0.70;0.70;;;;;;;;;;5045182;28;20497;-74
2021/10/14 05:50:01;;;;;;;2.87;2.07;;;;;;;;;;5054228;28;20177;-73
2021/10/14 05:52:27;;;;;;;1.03;0.93;;;;;;;;;;5032576;28;21064;-73
2021/10/14 05:54:53;;;;;;;1.50;1.33;;;;;;;;;;5034043;28;20405;-74
2021/10/14 05:57:20;;;;;;;0.70;0.60;;;;;;;;;;5033460;28;20421;-74
2021/10/14 05:59:46;;;;;;;1.20;1.05;;;;;;;;;;5034138;28;20402;-73
2021/10/14 06:02:12;;;;;;;1.27;1.17;;;;;;;;;;5034131;28;20230;-74
2021/10/14 06:04:38;;;;;;;3.80;1.50;;;;;;;;;;5033887;28;20802;-74
2021/10/14 06:07:04;;;;;;;0.70;0.70;;;;;;;;;;5032908;28;20958;-74
2021/10/14 06:09:30;;;;;;;1.50;1.40;;;;;;;;;;5033795;28;20435;-73
2021/10/14 06:11:56;;;;;;;1.93;1.63;;;;;;;;;;5033826;28;20513;-74
2021/10/14 06:14:22;;;;;;;0.70;0.60;;;;;;;;;;5033932;28;20416;-74
2021/10/14 06:16:48;;;;;;;0.70;0.60;;;;;;;;;;5042079;28;20436;-74
2021/10/14 06:19:14;;;;;;;2.60;2.50;;;;;;;;;;5053657;28;20404;-74
2021/10/14 06:21:39;;;;;;;1.07;1.07;;;;;;;;;;5043955;28;20194;-73
2021/10/14 06:24:05;;;;;;;1.10;1.00;;;;;;;;;;5033604;28;20441;-73
2021/10/14 06:26:32;;;;;;;0.90;0.90;;;;;;;;;;5032745;28;20436;-73
2021/10/14 06:28:58;;;;;;;0.80;0.80;;;;;;;;;;5033681;28;20500;-74
2021/10/14 06:31:24;;;;;;;1.10;1.00;;;;;;;;;;5033568;28;20292;-73
2021/10/14 06:33:50;;;;;;;1.65;1.55;;;;;;;;;;5033397;28;20444;-74
2021/10/14 06:36:16;;;;;;;2.03;1.10;;;;;;;;;;5032509;28;20642;-74
2021/10/14 06:38:41;;;;;;;1.40;1.07;;;;;;;;;;5033234;28;20205;-74
2021/10/14 06:41:07;;;;;;;2.60;1.53;;;;;;;;;;5033536;28;20900;-74
2021/10/14 06:43:33;;;;;;;1.17;1.00;;;;;;;;;;5033295;28;20794;-74
2021/10/14 06:45:59;;;;;;;2.83;1.17;;;;;;;;;;5040675;28;20900;-73
2021/10/14 06:48:25;;;;;;;1.60;1.50;;;;;;;;;;5025296;28;20447;-74
2021/10/14 06:50:52;;;;;;;1.17;1.07;;;;;;;;;;5032908;28;20473;-74
2021/10/14 06:53:18;;;;;;;1.80;1.70;;;;;;;;;;5033224;28;20413;-73
2021/10/14 06:55:44;;;;;;;1.27;1.25;;;;;;;;;;5032736;28;20539;-74
2021/10/14 06:58:09;;;;;;;0.70;0.70;;;;;;;;;;5032836;28;20200;-74
2021/10/14 07:00:35;;;;;;;2.30;1.53;;;;;;;;;;5032987;28;20409;-73
2021/10/14 07:03:03;;;;;;;0.93;0.93;;;;;;;;;;5032813;28;20403;-74
2021/10/14 07:05:29;;;;;;;0.90;0.90;;;;;;;;;;5032795;28;20209;-73
2021/10/14 07:07:55;;;;;;;0.80;0.80;;;;;;;;;;5031857;28;20278;-73
2021/10/14 07:10:22;;;;;;;1.50;0.93;;;;;;;;;;5032853;28;20409;-74
2021/10/14 07:12:48;;;;;;;1.48;1.38;;;;;;;;;;5032767;28;20410;-74
2021/10/14 07:15:14;;;;;;;0.90;0.90;;;;;;;;;;5037387;28;20545;-73
2021/10/14 07:17:40;;;;;;;2.95;1.92;;;;;;;;;;5038235;28;20202;-73
2021/10/14 07:20:07;;;;;;;2.23;2.13;;;;;;;;;;5032539;28;20188;-73
2021/10/14 07:22:33;;;;;;;1.40;0.80;;;;;;;;;;5015050;28;20848;-73
2021/10/14 07:24:59;;;;;;;3.70;3.27;;;;;;;;;;5032775;28;20198;-73
2021/10/14 07:27:25;;;;;;;0.98;0.93;;;;;;;;;;5031747;28;20508;-74
2021/10/14 07:29:51;;;;;;;1.25;1.17;;;;;;;;;;5032507;28;20182;-73
2021/10/14 07:32:17;;;;;;;2.50;2.40;;;;;;;;;;5031778;28;20678;-74
2021/10/14 07:34:43;;;;;;;0.70;0.70;;;;;;;;;;5032269;28;20401;-73
2021/10/14 07:37:09;;;;;;;1.35;1.25;;;;;;;;;;5031529;28;20482;-73
2021/10/14 07:39:36;;;;;;;2.03;1.92;;;;;;;;;;5032125;28;20170;-73
2021/10/14 07:42:02;;;;;;;1.42;1.35;;;;;;;;;;5032453;28;20178;-73
2021/10/14 07:44:28;;;;;;;1.33;1.23;;;;;;;;;;5032028;28;20178;-74
2021/10/14 07:46:54;;;;;;;1.33;0.90;;;;;;;;;;5041257;28;20665;-74
2021/10/14 07:49:20;;;;;;;1.53;1.30;;;;;;;;;;5038320;28;20436;-74
2021/10/14 07:51:46;;;;;;;1.00;1.00;;;;;;;;;;5031964;28;20456;-74
2021/10/14 07:54:12;;;;;;;0.90;0.90;;;;;;;;;;5031967;28;20635;-74
2021/10/14 07:56:38;;;;;;;1.77;1.57;;;;;;;;;;5013455;28;20284;-74
2021/10/14 07:59:04;;;;;;;1.10;1.00;;;;;;;;;;5032159;28;20455;-74
2021/10/14 08:01:30;;;;;;;0.70;0.70;;;;;;;;;;5031916;28;20405;-74
2021/10/14 08:03:57;;;;;;;1.45;1.35;;;;;;;;;;5032017;28;20411;-74
2021/10/14 08:06:23;;;;;;;1.85;1.75;;;;;;;;;;5030892;28;20198;-74
2021/10/14 08:08:49;;;;;;;1.35;1.25;;;;;;;;;;5031780;28;20227;-74
2021/10/14 08:11:15;;;;;;;0.80;0.80;;;;;;;;;;5031958;28;20276;-74
2021/10/14 08:13:41;;;;;;;1.10;0.95;;;;;;;;;;5031738;28;20988;-74
2021/10/14 08:16:07;;;;;;;2.03;1.10;;;;;;;;;;5039080;28;20269;-74
2021/10/14 08:18:33;;;;;;;1.40;1.30;;;;;;;;;;5033220;28;20452;-74
2021/10/14 08:21:00;;;;;;;2.00;1.77;;;;;;;;;;5031842;28;20182;-74
2021/10/14 08:23:26;;;;;;;2.35;1.13;;;;;;;;;;5031491;28;20200;-74
2021/10/14 08:25:53;;;;;;;2.88;2.20;;;;;;;;;;5031028;28;20178;-74
2021/10/14 08:28:19;;;;;;;0.80;0.80;;;;;;;;;;5031630;28;20228;-75
2021/10/14 08:30:47;;;;;;;1.83;1.73;;;;;;;;;;5031574;28;20674;-74
2021/10/14 08:33:13;;;;;;;1.52;0.82;;;;;;;;;;5031673;28;20253;-74
2021/10/14 08:35:39;;;;;;;2.50;1.55;;;;;;;;;;5031535;28;20181;-74
2021/10/14 08:38:17;;;;;;;2.15;1.80;;;;;;;;;;5029602;28;20198;-73
2021/10/14 08:40:43;;;;;;;1.45;1.35;;;;;;;;;;5031436;28;20200;-74
2021/10/14 08:43:12;;;;;;;1.38;1.27;;;;;;;;;;5031955;28;20188;-75
2021/10/14 08:45:39;;;;;;;0.98;0.88;;;;;;;;;;5043398;28;20190;-74
2021/10/14 08:48:05;;;;;;;0.90;0.90;;;;;;;;;;5045473;28;20267;-74
2021/10/14 08:50:32;;;;;;;1.95;1.25;;;;;;;;;;5055445;28;20595;-73
2021/10/14 08:52:58;;;;;;;1.17;1.17;;;;;;;;;;5055467;28;20253;-73
2021/10/14 08:55:24;;;;;;;1.00;1.00;;;;;;;;;;5055102;28;20607;-73
2021/10/14 08:57:50;;;;;;;2.00;1.55;;;;;;;;;;5054539;28;20817;-74
2021/10/14 09:00:17;;;;;;;1.43;1.33;;;;;;;;;;5055366;28;20178;-73
2021/10/14 09:02:43;;;;;;;3.28;2.35;;;;;;;;;;5055085;28;20789;-74
2021/10/14 09:05:13;;;;;;;1.10;1.10;;;;;;;;;;5055184;28;20180;-74
2021/10/14 09:07:39;;;;;;;1.23;1.08;;;;;;;;;;5054303;28;20857;-74
2021/10/14 09:10:11;;;;;;;1.95;1.85;;;;;;;;;;5054933;28;20170;-73
2021/10/14 09:12:38;;;;;;;1.45;1.35;;;;;;;;;;5055440;28;20197;-73
2021/10/14 09:15:14;;;;;;;0.70;0.70;;;;;;;;;;5023993;28;20205;-74
2021/10/14 09:17:46;;;;;;;1.55;1.45;;;;;;;;;;5042322;28;20263;-73
2021/10/14 09:20:21;;;;;;;3.85;1.48;;;;;;;;;;5034843;28;20178;-73
2021/10/14 09:22:55;;;;;;;3.00;2.78;;;;;;;;;;5034920;28;20657;-73
2021/10/14 09:25:28;;;;;;;1.52;1.42;;;;;;;;;;5034568;28;20265;-73
2021/10/14 09:28:00;;;;;;;2.17;2.08;;;;;;;;;;5034038;28;20708;-74
2021/10/14 09:30:26;;;;;;;2.17;1.52;;;;;;;;;;5034477;28;20181;-73
2021/10/14 09:32:52;;;;;;;7.55;3.17;;;;;;;;;;5034681;28;20170;-73
2021/10/14 09:35:24;;;;;;;1.23;1.03;;;;;;;;;;5034661;28;20174;-73
2021/10/14 09:37:49;;;;;;;1.85;1.70;;;;;;;;;;5033984;28;20801;-74
2021/10/14 09:40:15;;;;;;;2.33;2.10;;;;;;;;;;5034410;28;20177;-73
2021/10/14 09:42:57;;;;;;;1.67;0.90;;;;;;;;;;5034529;28;20440;-74
2021/10/14 09:45:30;;;;;;;1.42;1.30;;;;;;;;;;5038331;28;20428;-73
2021/10/14 09:48:07;;;;;;;1.23;1.10;;;;;;;;;;5045347;28;20209;-73
2021/10/14 09:50:37;;;;;;;2.88;2.67;;;;;;;;;;5054255;28;20205;-73
2021/10/14 09:53:05;;;;;;;1.70;1.45;;;;;;;;;;5054261;28;20638;-73
2021/10/14 09:55:31;;;;;;;5.47;1.80;;;;;;;;;;5053301;28;20170;-74
2021/10/14 09:57:59;;;;;;;1.60;1.50;;;;;;;;;;5053243;28;20207;-74
2021/10/14 10:00:27;;;;;;;1.77;1.67;;;;;;;;;;5054247;28;20267;-73
2021/10/14 10:02:54;;;;;;;4.72;2.72;;;;;;;;;;5054250;28;20598;-74
2021/10/14 10:05:20;;;;;;;3.05;1.40;;;;;;;;;;5054061;28;20173;-74
2021/10/14 10:07:47;;;;;;;1.27;1.17;;;;;;;;;;5053036;28;20213;-74
2021/10/14 10:10:15;;;;;;;3.92;1.65;;;;;;;;;;5053538;28;20550;-73
2021/10/14 10:12:41;;;;;;;4.38;2.13;;;;;;;;;;5054098;28;20208;-74
2021/10/14 10:15:07;;;;;;;1.77;1.67;;;;;;;;;;5042350;28;20630;-73
2021/10/14 10:17:38;;;;;;;2.05;1.35;;;;;;;;;;5044647;28;20436;-74
2021/10/14 10:20:24;;;;;;;3.40;3.03;;;;;;;;;;5053740;28;20170;-73
2021/10/14 10:22:50;;;;;;;0.98;0.98;;;;;;;;;;5053490;28;20526;-73
2021/10/14 10:25:16;;;;;;;6.82;6.40;;;;;;;;;;5053427;28;20767;-73
2021/10/14 10:27:42;;;;;;;1.40;1.30;;;;;;;;;;5053000;28;20204;-73
2021/10/14 10:30:08;;;;;;;2.00;1.87;;;;;;;;;;5053297;28;20419;-73
2021/10/14 10:32:46;;;;;;;1.40;1.30;;;;;;;;;;5053531;28;20463;-73
2021/10/14 10:35:32;;;;;;;0.93;0.93;;;;;;;;;;5053628;28;20546;-73
2021/10/14 10:38:12;;;;;;;1.52;1.42;;;;;;;;;;5052602;28;20262;-73
2021/10/14 10:40:40;;;;;;;2.90;1.08;;;;;;;;;;5053226;28;20170;-74
2021/10/14 10:43:11;;;;;;;0.88;0.88;;;;;;;;;;5048748;28;20198;-74
2021/10/14 10:45:44;;;;;;;4.82;3.25;;;;;;;;;;5041088;28;20790;-73
2021/10/14 10:48:11;;;;;;;4.72;1.35;;;;;;;;;;5037925;28;20209;-73
2021/10/14 10:50:47;;;;;;;1.52;1.42;;;;;;;;;;5053325;28;20205;-73
2021/10/14 10:53:14;;;;;;;1.00;1.00;;;;;;;;;;5053121;28;20248;-73
2021/10/14 10:55:42;;;;;;;1.13;0.75;;;;;;;;;;5052836;28;20745;-73
2021/10/14 10:58:09;;;;;;;2.75;1.65;;;;;;;;;;5052495;28;20255;-72
2021/10/14 11:00:36;;;;;;;2.15;1.95;;;;;;;;;;5052909;28;20208;-73
2021/10/14 11:03:11;;;;;;;3.40;1.83;;;;;;;;;;5053244;28;20177;-73
2021/10/14 11:05:48;;;;;;;1.00;0.95;;;;;;;;;;5052873;28;20208;-73
2021/10/14 11:08:20;;;;;;;1.77;1.67;;;;;;;;;;5051561;28;20212;-73
2021/10/14 11:10:47;;;;;;;0.80;0.80;;;;;;;;;;5052474;28;20210;-73
2021/10/14 11:13:13;;;;;;;0.70;0.70;;;;;;;;;;5040331;28;20186;-72
2021/10/14 11:15:39;;;;;;;0.80;0.80;;;;;;;;;;5040621;28;20185;-73
2021/10/14 11:18:06;;;;;;;2.15;2.05;;;;;;;;;;5030565;28;20437;-72
2021/10/14 11:20:33;;;;;;;1.85;1.75;;;;;;;;;;5030525;28;20192;-73
2021/10/14 11:23:03;;;;;;;0.95;0.95;;;;;;;;;;5032444;28;20181;-73
2021/10/14 11:25:29;;;;;;;0.90;0.85;;;;;;;;;;5032287;28;20178;-73
2021/10/14 11:28:05;;;;;;;3.15;1.23;;;;;;;;;;5031515;28;20194;-72
2021/10/14 11:30:51;;;;;;;0.75;0.68;;;;;;;;;;5033192;28;20170;-72
2021/10/14 11:33:34;;;;;;;0.70;0.70;;;;;;;;;;5032697;28;20239;-71
2021/10/14 11:36:01;;;;;;;1.15;1.08;;;;;;;;;;5031559;28;20218;-72
2021/10/14 11:38:28;;;;;;;2.05;1.95;;;;;;;;;;5032342;28;20205;-71
2021/10/14 11:40:54;;;;;;;1.75;1.65;;;;;;;;;;5031998;28;20184;-72
2021/10/14 11:43:24;;;;;;;1.05;0.95;;;;;;;;;;5031231;28;20214;-72
2021/10/14 11:45:50;;;;;;;0.80;0.80;;;;;;;;;;5039752;28;20181;-71
2021/10/14 11:48:26;;;;;;;1.93;0.93;;;;;;;;;;5045188;28;20243;-71
2021/10/14 11:51:09;;;;;;;2.22;2.03;;;;;;;;;;5051994;28;20463;-71
2021/10/14 11:53:35;;;;;;;2.25;2.15;;;;;;;;;;5052106;28;20181;-72
2021/10/14 11:56:04;;;;;;;2.13;2.03;;;;;;;;;;5050783;28;20216;-72
2021/10/14 11:58:30;;;;;;;1.10;1.00;;;;;;;;;;5052075;28;20221;-72
2021/10/14 12:00:57;;;;;;;1.70;1.20;;;;;;;;;;5051813;28;20177;-71
2021/10/14 12:03:23;;;;;;;1.02;0.98;;;;;;;;;;5051953;28;20184;-71
2021/10/14 12:05:49;;;;;;;2.08;1.98;;;;;;;;;;5051259;28;20181;-72
2021/10/14 12:08:16;;;;;;;3.23;1.93;;;;;;;;;;5051779;28;20250;-71
2021/10/14 12:10:47;;;;;;;1.35;0.80;;;;;;;;;;5046771;28;20447;-72
2021/10/14 12:13:14;;;;;;;0.70;0.70;;;;;;;;;;5012177;28;20198;-72
2021/10/14 12:15:40;;;;;;;1.77;1.67;;;;;;;;;;5034037;28;20181;-73
2021/10/14 12:18:06;;;;;;;1.23;1.20;;;;;;;;;;5042593;28;20201;-71
2021/10/14 12:20:33;;;;;;;2.58;0.80;;;;;;;;;;5051859;28;20765;-71
2021/10/14 12:22:59;;;;;;;0.80;0.80;;;;;;;;;;5051638;28;20184;-71
2021/10/14 12:25:34;;;;;;;1.98;1.70;;;;;;;;;;5051241;28;20201;-71
2021/10/14 12:28:00;;;;;;;2.45;1.40;;;;;;;;;;5032738;28;20246;-71
2021/10/14 12:30:29;;;;;;;1.00;1.00;;;;;;;;;;5051590;28;20170;-72
2021/10/14 12:33:11;;;;;;;0.80;0.75;;;;;;;;;;5051675;28;20173;-72
2021/10/14 12:35:37;;;;;;;1.77;0.93;;;;;;;;;;5051611;28;20580;-72
2021/10/14 12:38:04;;;;;;;0.70;0.70;;;;;;;;;;5050616;28;20190;-72
2021/10/14 12:40:30;;;;;;;1.20;1.10;;;;;;;;;;5043694;28;20182;-72
2021/10/14 12:45:29;;;;;;;1.60;1.50;;;;;;;;;;5037524;28;20431;-72
2021/10/14 12:48:08;;;;;;;1.23;0.90;;;;;;;;;;5042444;28;20197;-72
2021/10/14 12:50:54;;;;;;;1.13;1.13;;;;;;;;;;5051397;28;20544;-73
2021/10/14 12:53:20;;;;;;;1.10;0.88;;;;;;;;;;5051497;28;20205;-73
2021/10/14 12:55:53;;;;;;;1.50;1.40;;;;;;;;;;5050510;28;20220;-73
2021/10/14 12:58:19;;;;;;;0.90;0.90;;;;;;;;;;5051378;28;20424;-72
2021/10/14 13:00:56;;;;;;;1.57;1.10;;;;;;;;;;5051415;28;20710;-71
2021/10/14 13:03:22;;;;;;;0.70;0.70;;;;;;;;;;5051296;28;20888;-72
2021/10/14 13:05:48;;;;;;;0.70;0.70;;;;;;;;;;5050638;28;20184;-72
2021/10/14 13:08:14;;;;;;;0.80;0.80;;;;;;;;;;5050591;28;20451;-72
2021/10/14 13:10:40;;;;;;;0.83;0.83;;;;;;;;;;5035530;28;20214;-71
2021/10/14 13:13:06;;;;;;;0.60;0.60;;;;;;;;;;5031265;28;20417;-71
2021/10/14 13:15:32;;;;;;;5.33;2.10;;;;;;;;;;5038311;28;20646;-71
2021/10/14 13:17:58;;;;;;;0.70;0.70;;;;;;;;;;5041825;28;20530;-71
2021/10/14 13:20:24;;;;;;;3.33;0.87;;;;;;;;;;5051216;28;20414;-72
2021/10/14 13:22:51;;;;;;;0.60;0.60;;;;;;;;;;5051123;28;20973;-71
2021/10/14 13:25:17;;;;;;;0.98;0.80;;;;;;;;;;5050723;28;20220;-71
2021/10/14 13:27:43;;;;;;;1.00;1.00;;;;;;;;;;5050252;28;20199;-72
2021/10/14 13:30:09;;;;;;;1.00;1.00;;;;;;;;;;5051324;28;20171;-71
2021/10/14 13:32:35;;;;;;;2.80;0.80;;;;;;;;;;5054596;28;21001;-71
2021/10/14 13:35:04;;;;;;;0.70;0.70;;;;;;;;;;5054605;28;20175;-72
2021/10/14 13:37:30;;;;;;;0.95;0.90;;;;;;;;;;5053553;28;20427;-72
2021/10/14 13:39:57;;;;;;;0.93;0.80;;;;;;;;;;5010507;28;20282;-72
2021/10/14 13:42:28;;;;;;;2.28;2.05;;;;;;;;;;5033127;28;20950;-72
2021/10/14 13:44:55;;;;;;;0.70;0.70;;;;;;;;;;5036496;28;20184;-72
2021/10/14 13:47:21;;;;;;;0.60;0.60;;;;;;;;;;5045077;28;20985;-72
2021/10/14 13:49:47;;;;;;;0.80;0.80;;;;;;;;;;5054461;28;20226;-71
2021/10/14 13:52:13;;;;;;;0.83;0.83;;;;;;;;;;5054093;28;20462;-72
2021/10/14 13:54:39;;;;;;;0.70;0.70;;;;;;;;;;5007631;28;20482;-72
2021/10/14 13:57:05;;;;;;;1.65;1.55;;;;;;;;;;5013637;28;20580;-71
2021/10/14 13:59:32;;;;;;;0.60;0.60;;;;;;;;;;5014546;28;20652;-72
2021/10/14 14:01:58;;;;;;;1.17;0.93;;;;;;;;;;5014323;28;20922;-71
2021/10/14 14:04:23;;;;;;;0.60;0.60;;;;;;;;;;5014638;28;20183;-72
2021/10/14 14:06:49;;;;;;;0.90;0.90;;;;;;;;;;5013241;28;20466;-71
2021/10/14 14:09:15;;;;;;;1.00;0.90;;;;;;;;;;5014065;28;20500;-71
2021/10/14 14:11:42;;;;;;;2.03;1.60;;;;;;;;;;5014270;28;20506;-72
2021/10/14 14:14:11;;;;;;;1.48;1.38;;;;;;;;;;5022475;28;20933;-72
2021/10/14 14:16:37;;;;;;;1.05;1.05;;;;;;;;;;5041572;28;20554;-72
2021/10/14 14:19:04;;;;;;;2.28;2.08;;;;;;;;;;5053508;28;20183;-72
2021/10/14 14:21:32;;;;;;;1.35;0.85;;;;;;;;;;5036061;28;20654;-72
2021/10/14 14:23:59;;;;;;;0.70;0.70;;;;;;;;;;5053610;28;20186;-72
2021/10/14 14:26:25;;;;;;;0.60;0.60;;;;;;;;;;5052550;28;20460;-72
2021/10/14 14:28:51;;;;;;;0.68;0.68;;;;;;;;;;5053563;28;20179;-72
2021/10/14 14:31:18;;;;;;;1.17;1.17;;;;;;;;;;5053413;28;20542;-72
2021/10/14 14:33:43;;;;;;;1.27;0.80;;;;;;;;;;5053579;28;20171;-72
2021/10/14 14:36:10;;;;;;;0.90;0.90;;;;;;;;;;5052383;28;20173;-73
2021/10/14 14:38:36;;;;;;;0.90;0.90;;;;;;;;;;5048736;28;20509;-72
2021/10/14 14:41:02;;;;;;;1.47;0.90;;;;;;;;;;5033059;28;20238;-73
2021/10/14 14:43:28;;;;;;;0.90;0.90;;;;;;;;;;5033642;28;20493;-72
2021/10/14 14:45:59;;;;;;;0.60;0.50;;;;;;;;;;5040764;28;20443;-72